• Join FlightAware (Why Join?)
  • Login
  • US Flag 
09:08PM EDT


 

Airport Tracker/Info


-or-


 

Live Flight TrackerFlight Track Log ✈ N90PB ✈ 13-May-2013 ✈ PACD / CDB - PADU / DUT

Flight Track Log - Related Links

Times and Time Zones

All times are in EDT time to prevent confusion due to time zone crossing. See the N90PB flight status page for this flight to view local times or setup timezone preferences in your user account.

Time Position Orientation Groundspeed Altitude Reporting Facility
EDT Latitude Longitude Course Direction KTS MPH feet Rate Location/Type
01:58PM 55.2000 -163.0167 246° West 140 161 13,000  Level Anchorage Center
01:59PM 55.1833 -163.0833 246° West 150 173 15,100 1,440 Climbing Anchorage Center
02:00PM 55.0504 -163.3095 248° West  Level FlightAware Approximate
02:00PM 55.1500 -163.1667 235° Southwest 180 207 16,000  Level Anchorage Center
02:01PM 55.0283 -163.4102 252° West  Level FlightAware Approximate
02:01PM 55.1333 -163.2667 254° West 230 265 16,000  Level Anchorage Center
02:02PM 55.0092 -163.5126 252° West  Level FlightAware Approximate
02:02PM 55.1000 -163.3667 240° Southwest 230 265 16,000  Level Anchorage Center
02:03PM 55.0833 -163.4667 254° West 220 253 16,000  Level Anchorage Center
02:05PM 55.0244 -163.5748 226° Southwest  Level FlightAware Approximate
02:05PM 55.0333 -163.6667 226° Southwest 230 265 16,000  Level Anchorage Center
02:06PM 55.0000 -163.7667 240° Southwest 220 253 16,000  Level Anchorage Center
02:07PM 54.9833 -163.8667 254° West 230 265 16,000  Level Anchorage Center
02:08PM 54.9500 -163.9833 244° Southwest 230 265 16,000  Level Anchorage Center
02:09PM 54.9167 -164.0833 240° Southwest 230 265 16,000  Level Anchorage Center
02:10PM 54.9000 -164.1833 254° West 230 265 16,000  Level Anchorage Center
02:11PM 54.8667 -164.2833 240° Southwest 230 265 16,000  Level Anchorage Center
02:12PM 54.8333 -164.3833 240° Southwest 230 265 16,000  Level Anchorage Center
02:13PM 54.8167 -164.4833 254° West 230 265 16,000  Level Anchorage Center
02:14PM 54.7833 -164.5833 240° Southwest 220 253 16,000  Level Anchorage Center
02:15PM 54.7500 -164.6833 240° Southwest 240 276 16,000  Level Anchorage Center
02:16PM 54.7333 -164.7833 254° West 230 265 16,000  Level Anchorage Center
02:17PM 54.7000 -164.8833 240° Southwest 230 265 16,000  Level Anchorage Center
02:18PM 54.6833 -164.9833 254° West 230 265 16,000  Level Anchorage Center
02:19PM 54.6500 -165.0833 240° Southwest 230 265 16,000  Level Anchorage Center
02:20PM 54.6167 -165.1833 240° Southwest 230 265 16,000  Level Anchorage Center
02:21PM 54.5833 -165.2833 240° Southwest 230 265 16,000  Level Anchorage Center
02:22PM 54.5667 -165.4000 256° West 240 276 16,000  Level Anchorage Center
02:23PM 54.5333 -165.5000 240° Southwest 230 265 16,000  Level Anchorage Center
02:24PM 54.5000 -165.6000 240° Southwest 230 265 16,000  Level Anchorage Center
02:25PM 54.4667 -165.7000 240° Southwest 240 276 16,000 -360 Level Anchorage Center
02:26PM 54.4500 -165.8000 254° West 240 276 15,300 -1,200 Descending Anchorage Center
02:27PM 54.4167 -165.9167 244° Southwest 260 299 13,600 -1,920 Descending Anchorage Center
02:28PM 54.3833 -166.0167 240° Southwest 270 311 11,500 -2,040 Descending Anchorage Center
02:29PM 54.3500 -166.1333 244° Southwest 250 288 9,600 -1,920 Descending Anchorage Center
02:32PM 54.3111 -166.2599 242° Southwest  Level FlightAware Approximate
02:39PM 53.9311 -166.5142 193° South  Level FlightAware Approximate
02:40PM 53.8989 -166.5450 193° South  Level Estimated
02:41PM 53.8989 -166.5450 193° South  Level Estimated
02:42PM 53.8989 -166.5450 193° South  Level Estimated
02:43PM 53.8989 -166.5450 193° South  Level Estimated
02:44PM 53.8989 -166.5450 193° South  Level Estimated
02:45PM 53.8989 -166.5450 193° South  Level Estimated
02:46PM 53.8989 -166.5450 193° South  Level Estimated
02:47PM 53.8989 -166.5450 193° South  Level Estimated
02:48PM 53.8989 -166.5450 193° South  Level Estimated
02:49PM 53.8989 -166.5450 193° South  Level Estimated
02:50PM 53.8989 -166.5450 193° South  Level Estimated
02:51PM 53.8989 -166.5450 193° South  Level Estimated
02:52PM 53.8989 -166.5450 193° South  Level Estimated
02:53PM 53.8989 -166.5450 193° South  Level Estimated